sensor_id;sensor_type;location;lat;lon;timestamp;P1;P2;P0
75224;PMS5003;63807;45.428;9.202;2022-09-29T00:01:41;24;22;
75224;PMS5003;63807;45.428;9.202;2022-09-29T00:04:06;21;19;
75224;PMS5003;63807;45.428;9.202;2022-09-29T00:06:32;21;19;
75224;PMS5003;63807;45.428;9.202;2022-09-29T00:08:57;30;27;
75224;PMS5003;63807;45.428;9.202;2022-09-29T00:11:22;21;21;
75224;PMS5003;63807;45.428;9.202;2022-09-29T00:13:47;26;24;
75224;PMS5003;63807;45.428;9.202;2022-09-29T00:16:12;20;20;
75224;PMS5003;63807;45.428;9.202;2022-09-29T00:18:38;25;23;
75224;PMS5003;63807;45.428;9.202;2022-09-29T00:21:04;22;21;
75224;PMS5003;63807;45.428;9.202;2022-09-29T00:23:29;19;17;
75224;PMS5003;63807;45.428;9.202;2022-09-29T00:25:59;17;17;
75224;PMS5003;63807;45.428;9.202;2022-09-29T00:28:18;20;18;
75224;PMS5003;63807;45.428;9.202;2022-09-29T00:30:44;25;24;
75224;PMS5003;63807;45.428;9.202;2022-09-29T00:33:09;21;21;
75224;PMS5003;63807;45.428;9.202;2022-09-29T00:35:34;25;24;
75224;PMS5003;63807;45.428;9.202;2022-09-29T00:37:59;24;23;
75224;PMS5003;63807;45.428;9.202;2022-09-29T00:40:25;19;18;
75224;PMS5003;63807;45.428;9.202;2022-09-29T00:42:50;19;19;
75224;PMS5003;63807;45.428;9.202;2022-09-29T00:45:17;25;22;
75224;PMS5003;63807;45.428;9.202;2022-09-29T00:47:41;21;21;
75224;PMS5003;63807;45.428;9.202;2022-09-29T00:50:08;21;21;
75224;PMS5003;63807;45.428;9.202;2022-09-29T00:52:31;21;21;
75224;PMS5003;63807;45.428;9.202;2022-09-29T00:54:57;21;20;
75224;PMS5003;63807;45.428;9.202;2022-09-29T00:57:22;22;21;
75224;PMS5003;63807;45.428;9.202;2022-09-29T00:59:48;24;23;
75224;PMS5003;63807;45.428;9.202;2022-09-29T01:02:12;21;20;
75224;PMS5003;63807;45.428;9.202;2022-09-29T01:04:38;20;20;
75224;PMS5003;63807;45.428;9.202;2022-09-29T01:07:03;20;17;
75224;PMS5003;63807;45.428;9.202;2022-09-29T01:09:29;23;22;
75224;PMS5003;63807;45.428;9.202;2022-09-29T01:11:54;22;22;
75224;PMS5003;63807;45.428;9.202;2022-09-29T01:14:19;22;22;
75224;PMS5003;63807;45.428;9.202;2022-09-29T01:16:44;19;19;
75224;PMS5003;63807;45.428;9.202;2022-09-29T01:19:10;23;21;
75224;PMS5003;63807;45.428;9.202;2022-09-29T01:21:37;20;20;
75224;PMS5003;63807;45.428;9.202;2022-09-29T01:26:34;22;20;
75224;PMS5003;63807;45.428;9.202;2022-09-29T01:28:56;25;24;
75224;PMS5003;63807;45.428;9.202;2022-09-29T01:31:17;19;18;
75224;PMS5003;63807;45.428;9.202;2022-09-29T01:33:42;22;22;
75224;PMS5003;63807;45.428;9.202;2022-09-29T01:36:07;22;21;
75224;PMS5003;63807;45.428;9.202;2022-09-29T01:38:37;24;23;
75224;PMS5003;63807;45.428;9.202;2022-09-29T01:40:59;24;22;
75224;PMS5003;63807;45.428;9.202;2022-09-29T01:43:24;23;23;
75224;PMS5003;63807;45.428;9.202;2022-09-29T01:45:49;25;25;
75224;PMS5003;63807;45.428;9.202;2022-09-29T01:48:15;23;22;
75224;PMS5003;63807;45.428;9.202;2022-09-29T01:50:41;24;24;
75224;PMS5003;63807;45.428;9.202;2022-09-29T01:53:06;27;24;
75224;PMS5003;63807;45.428;9.202;2022-09-29T01:55:30;22;22;
75224;PMS5003;63807;45.428;9.202;2022-09-29T01:57:56;24;22;
75224;PMS5003;63807;45.428;9.202;2022-09-29T02:00:20;30;28;
75224;PMS5003;63807;45.428;9.202;2022-09-29T02:02:46;25;24;
75224;PMS5003;63807;45.428;9.202;2022-09-29T02:05:12;22;22;
75224;PMS5003;63807;45.428;9.202;2022-09-29T02:07:37;25;24;
75224;PMS5003;63807;45.428;9.202;2022-09-29T02:10:03;29;27;
75224;PMS5003;63807;45.428;9.202;2022-09-29T02:12:28;26;24;
75224;PMS5003;63807;45.428;9.202;2022-09-29T02:14:53;23;22;
75224;PMS5003;63807;45.428;9.202;2022-09-29T02:17:19;30;30;
75224;PMS5003;63807;45.428;9.202;2022-09-29T02:19:44;25;23;
75224;PMS5003;63807;45.428;9.202;2022-09-29T02:22:09;34;30;
75224;PMS5003;63807;45.428;9.202;2022-09-29T02:24:34;23;23;
75224;PMS5003;63807;45.428;9.202;2022-09-29T02:26:59;24;24;
75224;PMS5003;63807;45.428;9.202;2022-09-29T02:29:25;25;25;
75224;PMS5003;63807;45.428;9.202;2022-09-29T02:31:50;27;27;
75224;PMS5003;63807;45.428;9.202;2022-09-29T02:34:17;31;29;
75224;PMS5003;63807;45.428;9.202;2022-09-29T02:36:42;28;27;
75224;PMS5003;63807;45.428;9.202;2022-09-29T02:39:08;28;27;
75224;PMS5003;63807;45.428;9.202;2022-09-29T02:41:33;25;24;
75224;PMS5003;63807;45.428;9.202;2022-09-29T02:44:02;24;23;
75224;PMS5003;63807;45.428;9.202;2022-09-29T02:46:27;26;25;
75224;PMS5003;63807;45.428;9.202;2022-09-29T02:48:53;28;27;
75224;PMS5003;63807;45.428;9.202;2022-09-29T02:51:15;25;25;
75224;PMS5003;63807;45.428;9.202;2022-09-29T02:53:43;27;24;
75224;PMS5003;63807;45.428;9.202;2022-09-29T02:56:06;26;25;
75224;PMS5003;63807;45.428;9.202;2022-09-29T02:58:31;26;25;
75224;PMS5003;63807;45.428;9.202;2022-09-29T03:00:56;28;26;
75224;PMS5003;63807;45.428;9.202;2022-09-29T03:03:21;28;28;
75224;PMS5003;63807;45.428;9.202;2022-09-29T03:05:46;25;25;
75224;PMS5003;63807;45.428;9.202;2022-09-29T03:08:11;26;24;
75224;PMS5003;63807;45.428;9.202;2022-09-29T03:10:37;30;26;
75224;PMS5003;63807;45.428;9.202;2022-09-29T03:13:02;28;28;
75224;PMS5003;63807;45.428;9.202;2022-09-29T03:15:28;32;29;
75224;PMS5003;63807;45.428;9.202;2022-09-29T03:17:54;28;28;
75224;PMS5003;63807;45.428;9.202;2022-09-29T03:20:19;26;26;
75224;PMS5003;63807;45.428;9.202;2022-09-29T03:22:44;31;31;
75224;PMS5003;63807;45.428;9.202;2022-09-29T03:25:10;32;31;
75224;PMS5003;63807;45.428;9.202;2022-09-29T03:27:36;36;33;
75224;PMS5003;63807;45.428;9.202;2022-09-29T03:30:01;30;29;
75224;PMS5003;63807;45.428;9.202;2022-09-29T03:32:26;34;30;
75224;PMS5003;63807;45.428;9.202;2022-09-29T03:34:52;30;28;
75224;PMS5003;63807;45.428;9.202;2022-09-29T03:37:18;26;26;
75224;PMS5003;63807;45.428;9.202;2022-09-29T03:39:42;27;26;
75224;PMS5003;63807;45.428;9.202;2022-09-29T03:42:08;31;29;
75224;PMS5003;63807;45.428;9.202;2022-09-29T03:44:33;33;32;
75224;PMS5003;63807;45.428;9.202;2022-09-29T03:46:58;27;25;
75224;PMS5003;63807;45.428;9.202;2022-09-29T03:49:24;32;32;
75224;PMS5003;63807;45.428;9.202;2022-09-29T03:51:49;35;33;
75224;PMS5003;63807;45.428;9.202;2022-09-29T03:54:15;30;29;
75224;PMS5003;63807;45.428;9.202;2022-09-29T03:56:40;30;28;
75224;PMS5003;63807;45.428;9.202;2022-09-29T03:59:06;35;34;
75224;PMS5003;63807;45.428;9.202;2022-09-29T04:01:31;38;35;
75224;PMS5003;63807;45.428;9.202;2022-09-29T04:03:56;32;31;
75224;PMS5003;63807;45.428;9.202;2022-09-29T04:06:22;29;29;
75224;PMS5003;63807;45.428;9.202;2022-09-29T04:08:47;29;28;
75224;PMS5003;63807;45.428;9.202;2022-09-29T04:11:12;30;30;
75224;PMS5003;63807;45.428;9.202;2022-09-29T04:13:37;32;30;
75224;PMS5003;63807;45.428;9.202;2022-09-29T04:16:04;29;29;
75224;PMS5003;63807;45.428;9.202;2022-09-29T04:18:29;31;29;
75224;PMS5003;63807;45.428;9.202;2022-09-29T04:20:54;31;29;
75224;PMS5003;63807;45.428;9.202;2022-09-29T04:23:20;26;25;
75224;PMS5003;63807;45.428;9.202;2022-09-29T04:25:45;31;29;
75224;PMS5003;63807;45.428;9.202;2022-09-29T04:28:10;29;29;
75224;PMS5003;63807;45.428;9.202;2022-09-29T04:30:35;29;26;
75224;PMS5003;63807;45.428;9.202;2022-09-29T04:33:00;30;28;
75224;PMS5003;63807;45.428;9.202;2022-09-29T04:35:26;32;31;
75224;PMS5003;63807;45.428;9.202;2022-09-29T04:37:53;29;27;
75224;PMS5003;63807;45.428;9.202;2022-09-29T04:40:18;23;23;
75224;PMS5003;63807;45.428;9.202;2022-09-29T04:42:43;28;27;
75224;PMS5003;63807;45.428;9.202;2022-09-29T04:45:08;25;25;
75224;PMS5003;63807;45.428;9.202;2022-09-29T04:47:34;27;25;
75224;PMS5003;63807;45.428;9.202;2022-09-29T04:49:59;28;28;
75224;PMS5003;63807;45.428;9.202;2022-09-29T04:52:24;23;23;
75224;PMS5003;63807;45.428;9.202;2022-09-29T04:54:49;24;24;
75224;PMS5003;63807;45.428;9.202;2022-09-29T04:57:15;26;26;
75224;PMS5003;63807;45.428;9.202;2022-09-29T04:59:40;29;28;
75224;PMS5003;63807;45.428;9.202;2022-09-29T05:02:05;24;23;
75224;PMS5003;63807;45.428;9.202;2022-09-29T05:04:30;27;26;
75224;PMS5003;63807;45.428;9.202;2022-09-29T05:06:56;23;23;
75224;PMS5003;63807;45.428;9.202;2022-09-29T05:09:22;23;22;
75224;PMS5003;63807;45.428;9.202;2022-09-29T05:11:47;24;23;
75224;PMS5003;63807;45.428;9.202;2022-09-29T05:14:12;27;25;
75224;PMS5003;63807;45.428;9.202;2022-09-29T05:16:37;23;23;
75224;PMS5003;63807;45.428;9.202;2022-09-29T05:19:02;24;23;
75224;PMS5003;63807;45.428;9.202;2022-09-29T05:21:28;26;23;
75224;PMS5003;63807;45.428;9.202;2022-09-29T05:23:53;32;29;
75224;PMS5003;63807;45.428;9.202;2022-09-29T05:26:18;25;23;
75224;PMS5003;63807;45.428;9.202;2022-09-29T05:28:44;25;25;
75224;PMS5003;63807;45.428;9.202;2022-09-29T05:31:08;26;25;
75224;PMS5003;63807;45.428;9.202;2022-09-29T05:33:34;29;26;
75224;PMS5003;63807;45.428;9.202;2022-09-29T05:36:00;31;28;
75224;PMS5003;63807;45.428;9.202;2022-09-29T05:38:25;24;23;
75224;PMS5003;63807;45.428;9.202;2022-09-29T05:40:50;29;26;
75224;PMS5003;63807;45.428;9.202;2022-09-29T05:43:16;22;22;
75224;PMS5003;63807;45.428;9.202;2022-09-29T05:45:41;24;23;
75224;PMS5003;63807;45.428;9.202;2022-09-29T05:48:07;31;29;
75224;PMS5003;63807;45.428;9.202;2022-09-29T05:50:33;28;25;
75224;PMS5003;63807;45.428;9.202;2022-09-29T05:53:01;24;24;
75224;PMS5003;63807;45.428;9.202;2022-09-29T05:55:24;28;27;
75224;PMS5003;63807;45.428;9.202;2022-09-29T05:57:49;30;30;
75224;PMS5003;63807;45.428;9.202;2022-09-29T06:00:15;25;25;
75224;PMS5003;63807;45.428;9.202;2022-09-29T06:02:40;27;25;
75224;PMS5003;63807;45.428;9.202;2022-09-29T06:05:06;31;30;
75224;PMS5003;63807;45.428;9.202;2022-09-29T06:07:31;27;26;
75224;PMS5003;63807;45.428;9.202;2022-09-29T06:09:57;27;26;
75224;PMS5003;63807;45.428;9.202;2022-09-29T06:12:22;26;25;
75224;PMS5003;63807;45.428;9.202;2022-09-29T06:14:47;29;29;
75224;PMS5003;63807;45.428;9.202;2022-09-29T06:17:12;27;24;
75224;PMS5003;63807;45.428;9.202;2022-09-29T06:19:38;26;25;
75224;PMS5003;63807;45.428;9.202;2022-09-29T06:22:03;25;24;
75224;PMS5003;63807;45.428;9.202;2022-09-29T06:24:28;30;30;
75224;PMS5003;63807;45.428;9.202;2022-09-29T06:26:53;26;26;
75224;PMS5003;63807;45.428;9.202;2022-09-29T06:29:19;33;32;
75224;PMS5003;63807;45.428;9.202;2022-09-29T06:31:44;33;30;
75224;PMS5003;63807;45.428;9.202;2022-09-29T06:34:09;28;27;
75224;PMS5003;63807;45.428;9.202;2022-09-29T06:36:35;35;34;
75224;PMS5003;63807;45.428;9.202;2022-09-29T06:39:01;36;34;
75224;PMS5003;63807;45.428;9.202;2022-09-29T06:41:25;34;30;
75224;PMS5003;63807;45.428;9.202;2022-09-29T06:43:51;35;33;
75224;PMS5003;63807;45.428;9.202;2022-09-29T06:46:16;41;36;
75224;PMS5003;63807;45.428;9.202;2022-09-29T06:48:41;31;30;
75224;PMS5003;63807;45.428;9.202;2022-09-29T06:51:06;38;36;
75224;PMS5003;63807;45.428;9.202;2022-09-29T06:53:32;34;33;
75224;PMS5003;63807;45.428;9.202;2022-09-29T06:55:57;35;33;
75224;PMS5003;63807;45.428;9.202;2022-09-29T06:58:22;34;33;
75224;PMS5003;63807;45.428;9.202;2022-09-29T07:00:48;36;35;
75224;PMS5003;63807;45.428;9.202;2022-09-29T07:03:13;38;37;
75224;PMS5003;63807;45.428;9.202;2022-09-29T07:05:39;36;35;
75224;PMS5003;63807;45.428;9.202;2022-09-29T07:08:04;32;31;
75224;PMS5003;63807;45.428;9.202;2022-09-29T07:10:29;36;34;
75224;PMS5003;63807;45.428;9.202;2022-09-29T07:12:54;33;32;
75224;PMS5003;63807;45.428;9.202;2022-09-29T07:15:19;30;30;
75224;PMS5003;63807;45.428;9.202;2022-09-29T07:17:45;32;31;
75224;PMS5003;63807;45.428;9.202;2022-09-29T07:20:10;33;32;
75224;PMS5003;63807;45.428;9.202;2022-09-29T07:22:36;36;35;
75224;PMS5003;63807;45.428;9.202;2022-09-29T07:25:02;33;30;
75224;PMS5003;63807;45.428;9.202;2022-09-29T07:27:27;31;30;
75224;PMS5003;63807;45.428;9.202;2022-09-29T07:29:53;29;29;
75224;PMS5003;63807;45.428;9.202;2022-09-29T07:32:18;31;31;
75224;PMS5003;63807;45.428;9.202;2022-09-29T07:34:43;31;30;
75224;PMS5003;63807;45.428;9.202;2022-09-29T07:37:09;39;36;
75224;PMS5003;63807;45.428;9.202;2022-09-29T07:39:34;37;37;
75224;PMS5003;63807;45.428;9.202;2022-09-29T07:41:59;37;35;
75224;PMS5003;63807;45.428;9.202;2022-09-29T07:44:25;35;32;
75224;PMS5003;63807;45.428;9.202;2022-09-29T07:46:51;36;34;
75224;PMS5003;63807;45.428;9.202;2022-09-29T07:49:17;33;32;
75224;PMS5003;63807;45.428;9.202;2022-09-29T07:51:42;37;36;
75224;PMS5003;63807;45.428;9.202;2022-09-29T07:54:07;37;36;
75224;PMS5003;63807;45.428;9.202;2022-09-29T07:56:33;38;36;
75224;PMS5003;63807;45.428;9.202;2022-09-29T07:58:59;37;36;
75224;PMS5003;63807;45.428;9.202;2022-09-29T08:01:24;40;37;
75224;PMS5003;63807;45.428;9.202;2022-09-29T08:03:51;40;40;
75224;PMS5003;63807;45.428;9.202;2022-09-29T08:06:14;33;33;
75224;PMS5003;63807;45.428;9.202;2022-09-29T08:08:40;39;38;
75224;PMS5003;63807;45.428;9.202;2022-09-29T08:11:05;36;35;
75224;PMS5003;63807;45.428;9.202;2022-09-29T08:13:30;37;35;
75224;PMS5003;63807;45.428;9.202;2022-09-29T08:15:56;45;43;
75224;PMS5003;63807;45.428;9.202;2022-09-29T08:18:22;38;38;
75224;PMS5003;63807;45.428;9.202;2022-09-29T08:20:47;36;34;
75224;PMS5003;63807;45.428;9.202;2022-09-29T08:23:13;36;35;
75224;PMS5003;63807;45.428;9.202;2022-09-29T08:25:38;32;32;
75224;PMS5003;63807;45.428;9.202;2022-09-29T08:28:03;32;31;
75224;PMS5003;63807;45.428;9.202;2022-09-29T08:30:29;34;33;
75224;PMS5003;63807;45.428;9.202;2022-09-29T08:32:55;36;35;
75224;PMS5003;63807;45.428;9.202;2022-09-29T08:35:20;38;37;
75224;PMS5003;63807;45.428;9.202;2022-09-29T08:37:45;35;32;
75224;PMS5003;63807;45.428;9.202;2022-09-29T08:40:11;34;34;
75224;PMS5003;63807;45.428;9.202;2022-09-29T08:42:38;40;36;
75224;PMS5003;63807;45.428;9.202;2022-09-29T08:45:02;33;33;
75224;PMS5003;63807;45.428;9.202;2022-09-29T08:47:27;37;35;
75224;PMS5003;63807;45.428;9.202;2022-09-29T08:49:53;33;32;
75224;PMS5003;63807;45.428;9.202;2022-09-29T08:52:19;32;31;
75224;PMS5003;63807;45.428;9.202;2022-09-29T08:54:44;32;31;
75224;PMS5003;63807;45.428;9.202;2022-09-29T08:57:10;36;34;
75224;PMS5003;63807;45.428;9.202;2022-09-29T08:59:33;32;30;
75224;PMS5003;63807;45.428;9.202;2022-09-29T09:02:02;41;40;
75224;PMS5003;63807;45.428;9.202;2022-09-29T09:04:29;38;37;
75224;PMS5003;63807;45.428;9.202;2022-09-29T09:06:52;32;32;
75224;PMS5003;63807;45.428;9.202;2022-09-29T09:09:19;35;33;
75224;PMS5003;63807;45.428;9.202;2022-09-29T09:11:45;30;29;
75224;PMS5003;63807;45.428;9.202;2022-09-29T09:14:08;31;31;
75224;PMS5003;63807;45.428;9.202;2022-09-29T09:16:32;35;34;
75224;PMS5003;63807;45.428;9.202;2022-09-29T09:19:00;58;57;
75224;PMS5003;63807;45.428;9.202;2022-09-29T09:21:24;48;44;
75224;PMS5003;63807;45.428;9.202;2022-09-29T09:23:50;29;28;
75224;PMS5003;63807;45.428;9.202;2022-09-29T09:26:12;32;30;
75224;PMS5003;63807;45.428;9.202;2022-09-29T09:28:39;27;27;
75224;PMS5003;63807;45.428;9.202;2022-09-29T09:31:04;29;28;
75224;PMS5003;63807;45.428;9.202;2022-09-29T09:33:29;29;28;
75224;PMS5003;63807;45.428;9.202;2022-09-29T09:35:53;29;29;
75224;PMS5003;63807;45.428;9.202;2022-09-29T09:38:19;33;31;
75224;PMS5003;63807;45.428;9.202;2022-09-29T09:40:44;30;30;
75224;PMS5003;63807;45.428;9.202;2022-09-29T09:43:10;28;26;
75224;PMS5003;63807;45.428;9.202;2022-09-29T09:45:34;27;26;
75224;PMS5003;63807;45.428;9.202;2022-09-29T09:48:00;30;29;
75224;PMS5003;63807;45.428;9.202;2022-09-29T09:50:23;32;31;
75224;PMS5003;63807;45.428;9.202;2022-09-29T09:52:50;27;27;
75224;PMS5003;63807;45.428;9.202;2022-09-29T09:55:14;33;30;
75224;PMS5003;63807;45.428;9.202;2022-09-29T09:57:42;28;27;
75224;PMS5003;63807;45.428;9.202;2022-09-29T10:00:06;29;29;
75224;PMS5003;63807;45.428;9.202;2022-09-29T10:02:29;29;28;
75224;PMS5003;63807;45.428;9.202;2022-09-29T10:04:54;30;29;
75224;PMS5003;63807;45.428;9.202;2022-09-29T10:07:21;33;32;
75224;PMS5003;63807;45.428;9.202;2022-09-29T10:09:45;31;29;
75224;PMS5003;63807;45.428;9.202;2022-09-29T10:12:12;26;26;
75224;PMS5003;63807;45.428;9.202;2022-09-29T10:14:36;30;28;
75224;PMS5003;63807;45.428;9.202;2022-09-29T10:17:02;39;36;
75224;PMS5003;63807;45.428;9.202;2022-09-29T10:21:53;37;34;
75224;PMS5003;63807;45.428;9.202;2022-09-29T10:24:20;39;38;
75224;PMS5003;63807;45.428;9.202;2022-09-29T10:26:44;39;37;
75224;PMS5003;63807;45.428;9.202;2022-09-29T10:29:17;43;41;
75224;PMS5003;63807;45.428;9.202;2022-09-29T10:31:34;40;38;
75224;PMS5003;63807;45.428;9.202;2022-09-29T10:34:02;43;41;
75224;PMS5003;63807;45.428;9.202;2022-09-29T10:36:25;42;39;
75224;PMS5003;63807;45.428;9.202;2022-09-29T10:38:51;42;40;
75224;PMS5003;63807;45.428;9.202;2022-09-29T10:41:16;44;43;
75224;PMS5003;63807;45.428;9.202;2022-09-29T10:43:41;41;41;
75224;PMS5003;63807;45.428;9.202;2022-09-29T10:46:31;49;47;
75224;PMS5003;63807;45.428;9.202;2022-09-29T10:48:31;50;46;
75224;PMS5003;63807;45.428;9.202;2022-09-29T10:50:57;41;39;
75224;PMS5003;63807;45.428;9.202;2022-09-29T10:53:24;48;45;
75224;PMS5003;63807;45.428;9.202;2022-09-29T10:55:48;42;39;
75224;PMS5003;63807;45.428;9.202;2022-09-29T10:58:18;43;42;
75224;PMS5003;63807;45.428;9.202;2022-09-29T11:00:39;42;41;
75224;PMS5003;63807;45.428;9.202;2022-09-29T11:03:06;40;39;
75224;PMS5003;63807;45.428;9.202;2022-09-29T11:05:29;41;40;
75224;PMS5003;63807;45.428;9.202;2022-09-29T11:07:55;48;46;
75224;PMS5003;63807;45.428;9.202;2022-09-29T11:10:26;52;50;
75224;PMS5003;63807;45.428;9.202;2022-09-29T11:12:45;48;47;
75224;PMS5003;63807;45.428;9.202;2022-09-29T11:17:37;48;47;
75224;PMS5003;63807;45.428;9.202;2022-09-29T11:20:03;43;43;
75224;PMS5003;63807;45.428;9.202;2022-09-29T11:22:34;51;51;
75224;PMS5003;63807;45.428;9.202;2022-09-29T11:24:57;43;42;
75224;PMS5003;63807;45.428;9.202;2022-09-29T11:27:23;50;47;
75224;PMS5003;63807;45.428;9.202;2022-09-29T11:29:45;48;47;
75224;PMS5003;63807;45.428;9.202;2022-09-29T11:32:13;41;40;
75224;PMS5003;63807;45.428;9.202;2022-09-29T11:34:38;44;43;
75224;PMS5003;63807;45.428;9.202;2022-09-29T11:37:01;49;48;
75224;PMS5003;63807;45.428;9.202;2022-09-29T11:39:28;46;45;
75224;PMS5003;63807;45.428;9.202;2022-09-29T11:41:55;49;48;
75224;PMS5003;63807;45.428;9.202;2022-09-29T11:44:22;56;51;
75224;PMS5003;63807;45.428;9.202;2022-09-29T11:46:45;52;49;
75224;PMS5003;63807;45.428;9.202;2022-09-29T11:49:09;46;45;
75224;PMS5003;63807;45.428;9.202;2022-09-29T11:51:34;52;50;
75224;PMS5003;63807;45.428;9.202;2022-09-29T11:54:01;48;47;
75224;PMS5003;63807;45.428;9.202;2022-09-29T11:56:26;48;47;
75224;PMS5003;63807;45.428;9.202;2022-09-29T11:58:50;47;47;
75224;PMS5003;63807;45.428;9.202;2022-09-29T12:01:19;46;44;
75224;PMS5003;63807;45.428;9.202;2022-09-29T12:03:40;47;46;
75224;PMS5003;63807;45.428;9.202;2022-09-29T12:06:11;44;43;
75224;PMS5003;63807;45.428;9.202;2022-09-29T12:08:35;41;41;
75224;PMS5003;63807;45.428;9.202;2022-09-29T12:10:57;43;43;
75224;PMS5003;63807;45.428;9.202;2022-09-29T12:13:24;48;47;
75224;PMS5003;63807;45.428;9.202;2022-09-29T12:15:49;50;49;
75224;PMS5003;63807;45.428;9.202;2022-09-29T12:18:13;55;54;
75224;PMS5003;63807;45.428;9.202;2022-09-29T12:20:38;51;51;
75224;PMS5003;63807;45.428;9.202;2022-09-29T12:23:05;52;51;
75224;PMS5003;63807;45.428;9.202;2022-09-29T12:25:29;53;51;
75224;PMS5003;63807;45.428;9.202;2022-09-29T12:27:55;51;48;
75224;PMS5003;63807;45.428;9.202;2022-09-29T12:30:21;52;51;
75224;PMS5003;63807;45.428;9.202;2022-09-29T12:32:47;64;63;
75224;PMS5003;63807;45.428;9.202;2022-09-29T12:35:13;55;54;
75224;PMS5003;63807;45.428;9.202;2022-09-29T12:37:38;57;54;
75224;PMS5003;63807;45.428;9.202;2022-09-29T12:40:05;56;56;
75224;PMS5003;63807;45.428;9.202;2022-09-29T12:42:31;55;54;
75224;PMS5003;63807;45.428;9.202;2022-09-29T12:44:55;67;64;
75224;PMS5003;63807;45.428;9.202;2022-09-29T12:47:21;54;53;
75224;PMS5003;63807;45.428;9.202;2022-09-29T12:49:48;52;51;
75224;PMS5003;63807;45.428;9.202;2022-09-29T12:52:12;55;54;
75224;PMS5003;63807;45.428;9.202;2022-09-29T12:54:35;59;57;
75224;PMS5003;63807;45.428;9.202;2022-09-29T12:57:01;64;62;
75224;PMS5003;63807;45.428;9.202;2022-09-29T12:59:28;69;66;
75224;PMS5003;63807;45.428;9.202;2022-09-29T13:01:52;65;64;
75224;PMS5003;63807;45.428;9.202;2022-09-29T13:04:22;58;56;
75224;PMS5003;63807;45.428;9.202;2022-09-29T13:06:51;57;56;
75224;PMS5003;63807;45.428;9.202;2022-09-29T13:09:12;61;61;
75224;PMS5003;63807;45.428;9.202;2022-09-29T13:14:04;63;62;
75224;PMS5003;63807;45.428;9.202;2022-09-29T13:16:29;58;58;
75224;PMS5003;63807;45.428;9.202;2022-09-29T13:19:04;63;60;
75224;PMS5003;63807;45.428;9.202;2022-09-29T13:21:17;55;54;
75224;PMS5003;63807;45.428;9.202;2022-09-29T13:23:52;68;60;
75224;PMS5003;63807;45.428;9.202;2022-09-29T13:26:11;67;66;
75224;PMS5003;63807;45.428;9.202;2022-09-29T13:28:33;63;60;
75224;PMS5003;63807;45.428;9.202;2022-09-29T13:30:59;57;57;
75224;PMS5003;63807;45.428;9.202;2022-09-29T13:33:24;63;63;
75224;PMS5003;63807;45.428;9.202;2022-09-29T13:35:48;56;54;
75224;PMS5003;63807;45.428;9.202;2022-09-29T13:38:15;59;59;
75224;PMS5003;63807;45.428;9.202;2022-09-29T13:40:39;56;55;
75224;PMS5003;63807;45.428;9.202;2022-09-29T13:43:04;65;63;
75224;PMS5003;63807;45.428;9.202;2022-09-29T13:47:56;62;61;
75224;PMS5003;63807;45.428;9.202;2022-09-29T13:52:46;65;61;
75224;PMS5003;63807;45.428;9.202;2022-09-29T13:57:40;55;54;
75224;PMS5003;63807;45.428;9.202;2022-09-29T14:00:04;55;54;
75224;PMS5003;63807;45.428;9.202;2022-09-29T14:02:29;59;58;
75224;PMS5003;63807;45.428;9.202;2022-09-29T14:04:53;59;59;
75224;PMS5003;63807;45.428;9.202;2022-09-29T14:09:43;62;60;
75224;PMS5003;63807;45.428;9.202;2022-09-29T14:12:14;58;57;
75224;PMS5003;63807;45.428;9.202;2022-09-29T14:14:35;52;50;
75224;PMS5003;63807;45.428;9.202;2022-09-29T14:17:01;54;52;
75224;PMS5003;63807;45.428;9.202;2022-09-29T14:19:32;62;60;
75224;PMS5003;63807;45.428;9.202;2022-09-29T14:21:51;51;51;
75224;PMS5003;63807;45.428;9.202;2022-09-29T14:26:42;52;48;
75224;PMS5003;63807;45.428;9.202;2022-09-29T14:29:09;47;46;
75224;PMS5003;63807;45.428;9.202;2022-09-29T14:31:32;45;44;
75224;PMS5003;63807;45.428;9.202;2022-09-29T14:33:57;44;43;
75224;PMS5003;63807;45.428;9.202;2022-09-29T14:36:23;43;40;
75224;PMS5003;63807;45.428;9.202;2022-09-29T14:38:48;43;42;
75224;PMS5003;63807;45.428;9.202;2022-09-29T14:41:18;46;45;
75224;PMS5003;63807;45.428;9.202;2022-09-29T14:43:39;51;48;
75224;PMS5003;63807;45.428;9.202;2022-09-29T14:48:31;43;42;
75224;PMS5003;63807;45.428;9.202;2022-09-29T14:50:57;34;34;
75224;PMS5003;63807;45.428;9.202;2022-09-29T14:53:26;37;36;
75224;PMS5003;63807;45.428;9.202;2022-09-29T14:55:48;44;40;
75224;PMS5003;63807;45.428;9.202;2022-09-29T14:58:16;32;32;
75224;PMS5003;63807;45.428;9.202;2022-09-29T15:03:02;29;26;
75224;PMS5003;63807;45.428;9.202;2022-09-29T15:05:28;33;31;
75224;PMS5003;63807;45.428;9.202;2022-09-29T15:07:53;30;29;
75224;PMS5003;63807;45.428;9.202;2022-09-29T15:10:20;33;32;
75224;PMS5003;63807;45.428;9.202;2022-09-29T15:12:43;29;27;
75224;PMS5003;63807;45.428;9.202;2022-09-29T15:17:40;38;36;
75224;PMS5003;63807;45.428;9.202;2022-09-29T15:20:00;32;30;
75224;PMS5003;63807;45.428;9.202;2022-09-29T15:22:30;33;33;
75224;PMS5003;63807;45.428;9.202;2022-09-29T15:24:56;39;38;
75224;PMS5003;63807;45.428;9.202;2022-09-29T15:27:16;37;36;
75224;PMS5003;63807;45.428;9.202;2022-09-29T15:29:44;39;37;
75224;PMS5003;63807;45.428;9.202;2022-09-29T15:34:33;36;34;
75224;PMS5003;63807;45.428;9.202;2022-09-29T15:36:57;38;37;
75224;PMS5003;63807;45.428;9.202;2022-09-29T15:41:48;34;32;
75224;PMS5003;63807;45.428;9.202;2022-09-29T15:44:14;37;36;
75224;PMS5003;63807;45.428;9.202;2022-09-29T15:46:41;37;35;
75224;PMS5003;63807;45.428;9.202;2022-09-29T15:49:06;36;34;
75224;PMS5003;63807;45.428;9.202;2022-09-29T15:51:30;44;43;
75224;PMS5003;63807;45.428;9.202;2022-09-29T15:53:55;42;41;
75224;PMS5003;63807;45.428;9.202;2022-09-29T15:56:21;38;35;
75224;PMS5003;63807;45.428;9.202;2022-09-29T15:58:46;44;42;
75224;PMS5003;63807;45.428;9.202;2022-09-29T16:01:12;46;43;
75224;PMS5003;63807;45.428;9.202;2022-09-29T16:03:38;48;47;
75224;PMS5003;63807;45.428;9.202;2022-09-29T16:06:05;47;44;
75224;PMS5003;63807;45.428;9.202;2022-09-29T16:08:29;40;37;
75224;PMS5003;63807;45.428;9.202;2022-09-29T16:10:54;39;38;
75224;PMS5003;63807;45.428;9.202;2022-09-29T16:13:20;44;40;
75224;PMS5003;63807;45.428;9.202;2022-09-29T16:15:46;42;40;
75224;PMS5003;63807;45.428;9.202;2022-09-29T16:18:14;38;37;
75224;PMS5003;63807;45.428;9.202;2022-09-29T16:20:35;41;38;
75224;PMS5003;63807;45.428;9.202;2022-09-29T16:23:04;38;38;
75224;PMS5003;63807;45.428;9.202;2022-09-29T16:25:26;44;43;
75224;PMS5003;63807;45.428;9.202;2022-09-29T16:27:52;40;38;
75224;PMS5003;63807;45.428;9.202;2022-09-29T16:30:18;37;37;
75224;PMS5003;63807;45.428;9.202;2022-09-29T16:32:42;36;35;
75224;PMS5003;63807;45.428;9.202;2022-09-29T16:37:32;42;40;
75224;PMS5003;63807;45.428;9.202;2022-09-29T16:39:58;41;40;
75224;PMS5003;63807;45.428;9.202;2022-09-29T16:42:24;43;42;